createdAt,value
2019-03-28T00:01:10.059Z,8.30
2019-03-28T00:03:38.513Z,9.33
2019-03-28T00:06:06.980Z,8.47
2019-03-28T00:08:35.437Z,7.47
2019-03-28T00:11:04.028Z,9.90
2019-03-28T00:13:32.462Z,9.30
2019-03-28T00:16:00.933Z,9.37
2019-03-28T00:18:29.370Z,8.80
2019-03-28T00:20:57.809Z,11.13
2019-03-28T00:23:30.820Z,9.17
2019-03-28T00:25:59.257Z,9.67
2019-03-28T00:28:27.778Z,10.23
2019-03-28T00:30:56.299Z,12.80
2019-03-28T00:33:24.751Z,13.90
2019-03-28T00:35:53.202Z,13.30
2019-03-28T00:38:21.646Z,11.50
2019-03-28T00:40:50.122Z,14.80
2019-03-28T00:43:18.591Z,12.93
2019-03-28T00:45:47.022Z,12.57
2019-03-28T00:48:15.478Z,13.33
2019-03-28T00:50:43.926Z,13.80
2019-03-28T00:53:12.386Z,12.73
2019-03-28T00:55:41.103Z,13.10
2019-03-28T00:58:09.551Z,13.50
2019-03-28T01:00:38.025Z,14.13
2019-03-28T01:03:06.475Z,13.53
2019-03-28T01:05:34.921Z,15.57
2019-03-28T01:08:06.046Z,13.90
2019-03-28T01:10:35.071Z,15.87
2019-03-28T01:13:03.613Z,15.57
2019-03-28T01:15:32.102Z,16.80
2019-03-28T01:18:00.550Z,18.83
2019-03-28T01:20:28.992Z,23.17
2019-03-28T01:22:57.471Z,18.50
2019-03-28T01:25:27.669Z,18.53
2019-03-28T01:27:57.989Z,18.03
2019-03-28T01:30:26.643Z,18.23
2019-03-28T01:32:56.558Z,20.13
2019-03-28T01:35:26.095Z,18.80
2019-03-28T01:37:54.563Z,19.57
2019-03-28T01:40:23.016Z,19.50
2019-03-28T01:42:51.474Z,21.53
2019-03-28T01:45:20.305Z,22.00
2019-03-28T01:47:48.748Z,22.33
2019-03-28T01:50:17.219Z,23.57
2019-03-28T01:52:45.688Z,25.20
2019-03-28T01:55:14.147Z,23.10
2019-03-28T01:57:42.616Z,22.00
2019-03-28T02:00:13.210Z,20.47
2019-03-28T02:02:43.606Z,20.97
2019-03-28T02:05:12.308Z,20.97
2019-03-28T02:07:40.756Z,23.50
2019-03-28T02:10:09.562Z,23.63
2019-03-28T02:12:38.010Z,20.90
2019-03-28T02:15:11.149Z,22.57
2019-03-28T02:17:39.647Z,22.77
2019-03-28T02:20:08.882Z,24.43
2019-03-28T02:22:37.410Z,23.77
2019-03-28T02:25:07.907Z,26.50
2019-03-28T02:27:36.404Z,27.47
2019-03-28T02:30:07.700Z,32.97
2019-03-28T02:32:36.215Z,29.70
2019-03-28T02:35:05.629Z,28.23
2019-03-28T02:37:34.924Z,24.33
2019-03-28T02:40:04.736Z,23.70
2019-03-28T02:42:33.257Z,27.07
2019-03-28T02:45:02.119Z,28.07
2019-03-28T02:47:30.637Z,29.70
2019-03-28T02:49:59.657Z,28.63
2019-03-28T02:52:28.092Z,27.77
2019-03-28T02:54:57.816Z,30.77
2019-03-28T02:57:40.250Z,27.97
2019-03-28T02:59:57.179Z,25.57
2019-03-28T03:02:25.627Z,28.47
2019-03-28T03:04:56.323Z,30.80
2019-03-28T03:07:25.009Z,30.10
2019-03-28T03:09:54.776Z,33.30
2019-03-28T03:12:25.550Z,31.57
2019-03-28T03:14:54.054Z,29.70
2019-03-28T03:17:22.515Z,28.10
2019-03-28T03:19:53.828Z,27.10
2019-03-28T03:22:22.464Z,27.93
2019-03-28T03:24:50.904Z,31.83
2019-03-28T03:27:21.186Z,31.83
2019-03-28T03:29:49.776Z,35.20
2019-03-28T03:32:19.582Z,36.63
2019-03-28T03:34:48.134Z,37.80
2019-03-28T03:37:16.608Z,40.47
2019-03-28T03:39:47.351Z,39.20
2019-03-28T03:42:17.274Z,37.50
2019-03-28T03:44:45.895Z,39.63
2019-03-28T03:47:14.442Z,41.93
2019-03-28T03:49:42.945Z,44.77
2019-03-28T03:52:11.432Z,37.70
2019-03-28T03:54:39.863Z,41.27
2019-03-28T03:57:08.307Z,40.10
2019-03-28T03:59:37.530Z,41.73
2019-03-28T04:02:06.231Z,41.90
2019-03-28T04:04:34.737Z,39.80
2019-03-28T04:07:03.228Z,40.47
2019-03-28T04:09:31.823Z,39.73
2019-03-28T04:12:00.354Z,38.30
2019-03-28T04:14:28.886Z,36.27
2019-03-28T04:16:57.358Z,34.80
2019-03-28T04:19:26.226Z,36.07
2019-03-28T04:21:54.710Z,40.07
2019-03-28T04:24:23.149Z,39.67
2019-03-28T04:26:51.618Z,38.67
2019-03-28T04:29:20.057Z,37.90
2019-03-28T04:31:48.600Z,36.87
2019-03-28T04:34:17.063Z,38.83
2019-03-28T04:36:46.669Z,39.87
2019-03-28T04:39:15.120Z,38.10
2019-03-28T04:41:43.567Z,37.30
2019-03-28T04:44:12.014Z,38.80
2019-03-28T04:46:40.508Z,39.20
2019-03-28T04:49:09.208Z,37.87
2019-03-28T04:51:37.674Z,38.27
2019-03-28T04:54:06.131Z,38.73
2019-03-28T04:56:34.594Z,39.00
2019-03-28T04:59:04.004Z,35.73
2019-03-28T05:01:32.523Z,38.47
2019-03-28T05:04:00.969Z,38.43
2019-03-28T05:06:31.040Z,35.80
2019-03-28T05:09:00.467Z,37.50
2019-03-28T05:11:30.183Z,34.87
2019-03-28T05:13:58.737Z,37.27
2019-03-28T05:16:27.226Z,37.17
2019-03-28T05:18:55.742Z,38.20
2019-03-28T05:21:24.198Z,37.13
2019-03-28T05:23:52.649Z,37.83
2019-03-28T05:26:22.853Z,37.60
2019-03-28T05:28:57.427Z,37.40
2019-03-28T05:31:21.715Z,36.53
2019-03-28T05:33:50.166Z,37.60
2019-03-28T05:36:18.727Z,37.97
2019-03-28T05:38:48.512Z,35.27
2019-03-28T05:41:17.573Z,35.40
2019-03-28T05:43:46.104Z,37.03
2019-03-28T05:46:14.574Z,37.77
2019-03-28T05:48:43.069Z,38.37
2019-03-28T05:51:11.512Z,40.00
2019-03-28T05:53:43.817Z,37.00
2019-03-28T05:56:10.836Z,34.30
2019-03-28T05:58:39.315Z,34.43
2019-03-28T06:01:07.765Z,34.50
2019-03-28T06:03:36.313Z,34.30
2019-03-28T06:06:04.834Z,34.00
2019-03-28T06:08:33.311Z,30.70
2019-03-28T06:11:02.460Z,29.10
2019-03-28T06:13:31.151Z,26.73
2019-03-28T06:15:59.622Z,19.27
2019-03-28T06:18:28.147Z,22.20
2019-03-28T06:20:59.424Z,18.50
2019-03-28T06:23:26.770Z,21.00
2019-03-28T06:25:55.233Z,18.80
2019-03-28T06:28:25.939Z,21.13
2019-03-28T06:30:55.920Z,21.37
2019-03-28T06:33:24.570Z,23.60
2019-03-28T06:35:53.019Z,19.97
2019-03-28T06:38:21.468Z,17.70
2019-03-28T06:40:50.350Z,14.90
2019-03-28T06:43:18.797Z,15.77
2019-03-28T06:45:47.249Z,14.40
2019-03-28T06:48:15.857Z,10.37
2019-03-28T06:50:44.313Z,10.20
2019-03-28T06:53:14.210Z,10.33
2019-03-28T06:55:42.690Z,9.70
2019-03-28T06:58:11.144Z,9.83
2019-03-28T07:00:39.626Z,9.33
2019-03-28T07:03:08.071Z,9.20
2019-03-28T07:05:37.614Z,10.00
2019-03-28T07:08:07.778Z,9.23
2019-03-28T07:10:36.522Z,9.33
2019-03-28T07:13:05.110Z,9.97
2019-03-28T07:15:36.509Z,9.30
2019-03-28T07:18:03.929Z,10.40
2019-03-28T07:20:32.389Z,9.23
2019-03-28T07:23:00.839Z,7.77
2019-03-28T07:25:29.326Z,9.40
2019-03-28T07:27:57.790Z,8.10
2019-03-28T07:30:26.337Z,6.33
2019-03-28T07:32:54.808Z,5.70
2019-03-28T07:35:23.281Z,5.13
2019-03-28T07:37:51.768Z,5.63
2019-03-28T07:40:21.832Z,4.67
2019-03-28T07:42:50.462Z,4.17
2019-03-28T07:45:19.047Z,3.60
2019-03-28T07:47:47.483Z,4.20
2019-03-28T07:50:15.998Z,4.83
2019-03-28T07:52:44.629Z,4.70
2019-03-28T07:55:16.183Z,4.87
2019-03-28T07:57:43.339Z,5.30
2019-03-28T08:00:12.520Z,4.97
2019-03-28T08:02:41.009Z,5.53
2019-03-28T08:05:11.748Z,5.00
2019-03-28T08:07:45.424Z,5.10
2019-03-28T08:10:11.528Z,3.70
2019-03-28T08:12:39.986Z,4.90
2019-03-28T08:15:09.576Z,4.30
2019-03-28T08:17:38.020Z,4.57
2019-03-28T08:20:08.013Z,4.73
2019-03-28T08:22:37.626Z,5.10
2019-03-28T08:25:11.921Z,5.20
2019-03-28T08:27:47.309Z,5.20
2019-03-28T08:30:19.041Z,5.20
2019-03-28T08:32:46.563Z,5.90
2019-03-28T08:35:15.017Z,6.07
2019-03-28T08:37:43.919Z,6.63
2019-03-28T08:40:15.482Z,5.77
2019-03-28T08:42:43.936Z,6.20
2019-03-28T08:45:13.828Z,6.07
2019-03-28T08:47:42.533Z,5.73
2019-03-28T08:50:11.048Z,5.57
2019-03-28T08:52:42.046Z,5.57
2019-03-28T08:55:12.437Z,4.00
2019-03-28T08:57:40.911Z,4.97
2019-03-28T09:00:11.027Z,5.07
2019-03-28T09:02:39.484Z,3.80
2019-03-28T09:05:09.342Z,4.73
2019-03-28T09:07:38.090Z,4.97
2019-03-28T09:10:09.109Z,3.90
2019-03-28T09:12:39.724Z,3.70
2019-03-28T09:15:09.199Z,3.37
2019-03-28T09:17:37.640Z,3.03
2019-03-28T09:20:07.649Z,3.17
2019-03-28T09:22:38.789Z,3.27
2019-03-28T09:25:07.516Z,3.63
2019-03-28T09:27:35.967Z,3.13
2019-03-28T09:30:07.912Z,5.57
2019-03-28T09:32:36.775Z,4.83
2019-03-28T09:35:06.565Z,6.63
2019-03-28T09:37:35.021Z,7.40
2019-03-28T09:40:04.478Z,5.60
2019-03-28T09:42:32.926Z,6.70
2019-03-28T09:45:05.078Z,7.33
2019-03-28T09:47:33.590Z,7.93
2019-03-28T09:50:02.058Z,7.17
2019-03-28T09:52:30.590Z,7.87
2019-03-28T09:54:59.067Z,8.07
2019-03-28T09:57:27.523Z,9.87
2019-03-28T09:59:56.001Z,9.17
2019-03-28T10:02:24.524Z,10.07
2019-03-28T10:04:52.993Z,10.47
2019-03-28T10:07:21.449Z,10.00
2019-03-28T10:09:50.192Z,10.87
2019-03-28T10:12:18.933Z,10.20
2019-03-28T10:14:47.502Z,9.80
2019-03-28T10:17:16.064Z,10.37
2019-03-28T10:19:44.556Z,10.17
2019-03-28T10:22:13.375Z,9.80
2019-03-28T10:24:41.837Z,10.27
2019-03-28T10:27:10.303Z,10.90
2019-03-28T10:29:40.102Z,9.40
2019-03-28T10:32:08.576Z,10.03
2019-03-28T10:34:37.034Z,9.40
2019-03-28T10:37:05.535Z,9.17
2019-03-28T10:39:34.121Z,8.33
2019-03-28T10:42:02.562Z,8.77
2019-03-28T10:44:31.057Z,7.93
2019-03-28T10:46:59.493Z,7.40
2019-03-28T10:49:27.960Z,7.07
2019-03-28T10:51:56.410Z,6.20
2019-03-28T10:54:25.976Z,6.87
2019-03-28T10:56:57.917Z,7.50
2019-03-28T10:59:26.300Z,6.40
2019-03-28T11:01:54.750Z,5.97
2019-03-28T11:04:24.100Z,6.83
2019-03-28T11:06:52.571Z,6.90
2019-03-28T11:09:21.006Z,6.97
2019-03-28T11:11:49.533Z,5.73
2019-03-28T11:14:17.999Z,6.10
2019-03-28T11:16:48.259Z,6.87
2019-03-28T11:19:17.540Z,6.07
2019-03-28T11:21:46.216Z,7.07
2019-03-28T11:24:14.784Z,6.83
2019-03-28T11:26:43.227Z,5.83
2019-03-28T11:29:11.737Z,5.70
2019-03-28T11:31:46.118Z,5.80
2019-03-28T11:34:10.524Z,5.43
2019-03-28T11:36:39.053Z,5.67
2019-03-28T11:39:07.915Z,5.30
2019-03-28T11:41:36.378Z,6.67
2019-03-28T11:44:04.908Z,6.30
2019-03-28T11:46:33.411Z,5.07
2019-03-28T11:49:02.754Z,5.50
2019-03-28T11:51:31.294Z,5.57
2019-03-28T11:53:59.722Z,6.47
2019-03-28T11:56:28.184Z,5.57
2019-03-28T11:58:56.643Z,6.30
2019-03-28T12:01:25.106Z,5.73
2019-03-28T12:03:53.566Z,7.13
2019-03-28T12:06:22.142Z,5.07
2019-03-28T12:08:50.604Z,7.03
2019-03-28T12:11:19.078Z,6.70
2019-03-28T12:13:47.527Z,7.27
2019-03-28T12:16:16.998Z,6.20
2019-03-28T12:18:45.565Z,6.90
2019-03-28T12:21:14.023Z,6.57
2019-03-28T12:23:43.347Z,6.97
2019-03-28T12:26:12.120Z,7.10
2019-03-28T12:28:40.600Z,6.77
2019-03-28T12:31:09.245Z,8.50
2019-03-28T12:33:37.742Z,5.83
2019-03-28T12:36:07.056Z,7.00
2019-03-28T12:38:35.738Z,6.53
2019-03-28T12:41:04.339Z,7.17
2019-03-28T12:43:32.775Z,5.90
2019-03-28T12:46:01.352Z,7.27
2019-03-28T12:48:29.880Z,6.90
2019-03-28T12:50:59.293Z,6.27
2019-03-28T12:53:29.020Z,6.40
2019-03-28T12:55:57.962Z,5.83
2019-03-28T12:58:26.599Z,4.90
2019-03-28T13:00:55.122Z,5.47
2019-03-28T13:03:23.579Z,5.43
2019-03-28T13:05:52.075Z,6.40
2019-03-28T13:08:20.514Z,5.10
2019-03-28T13:10:48.982Z,4.97
2019-03-28T13:13:17.743Z,5.47
2019-03-28T13:15:46.241Z,5.03
2019-03-28T13:18:14.820Z,5.63
2019-03-28T13:20:44.001Z,5.87
2019-03-28T13:23:12.443Z,4.97
2019-03-28T13:25:40.914Z,6.37
2019-03-28T13:28:09.378Z,5.93
2019-03-28T13:30:37.831Z,4.67
2019-03-28T13:33:06.267Z,5.33
2019-03-28T13:35:35.414Z,5.47
2019-03-28T13:38:04.138Z,5.07
2019-03-28T13:40:32.580Z,4.73
2019-03-28T13:43:01.036Z,4.47
2019-03-28T13:45:29.802Z,5.50
2019-03-28T13:47:58.523Z,4.80
2019-03-28T13:50:27.068Z,5.00
2019-03-28T13:52:55.580Z,5.67
2019-03-28T13:55:24.021Z,5.73
2019-03-28T13:57:52.568Z,6.00
2019-03-28T14:00:32.263Z,6.10
2019-03-28T14:03:00.771Z,5.03
2019-03-28T14:05:29.232Z,6.03
2019-03-28T14:07:57.945Z,5.30
2019-03-28T14:10:26.391Z,5.10
2019-03-28T14:12:54.854Z,5.80
2019-03-28T14:15:23.296Z,5.53
2019-03-28T14:17:51.730Z,5.70
2019-03-28T14:20:22.354Z,6.30
2019-03-28T14:22:50.424Z,6.53
2019-03-28T14:25:18.868Z,6.03
2019-03-28T14:27:47.318Z,5.90
2019-03-28T14:30:16.107Z,6.70
2019-03-28T14:32:53.237Z,7.03
2019-03-28T14:35:14.722Z,6.30
2019-03-28T14:37:43.526Z,6.50
2019-03-28T14:40:12.311Z,6.23
2019-03-28T14:42:40.998Z,5.60
2019-03-28T14:45:09.923Z,5.23
2019-03-28T14:47:38.506Z,5.77
2019-03-28T14:50:07.722Z,5.40
2019-03-28T14:52:36.233Z,4.97
2019-03-28T14:55:05.021Z,5.90
2019-03-28T14:57:33.714Z,5.83
2019-03-28T15:00:04.172Z,5.77
2019-03-28T15:02:32.719Z,6.53
2019-03-28T15:05:01.149Z,5.00
2019-03-28T15:07:29.619Z,5.97
2019-03-28T15:09:58.066Z,5.93
2019-03-28T15:12:26.514Z,5.47
2019-03-28T15:14:54.966Z,6.10
2019-03-28T15:17:23.411Z,6.10
2019-03-28T15:19:51.858Z,5.20
2019-03-28T15:22:20.298Z,5.40
2019-03-28T15:24:48.740Z,5.43
2019-03-28T15:27:17.227Z,4.90
2019-03-28T15:29:45.668Z,4.77
2019-03-28T15:32:14.102Z,5.07
2019-03-28T15:34:42.564Z,5.87
2019-03-28T15:37:11.018Z,5.60
2019-03-28T15:39:39.459Z,5.70
2019-03-28T15:42:10.489Z,6.03
2019-03-28T15:44:39.513Z,5.70
2019-03-28T15:47:08.153Z,6.00
2019-03-28T15:49:36.586Z,5.53
2019-03-28T15:52:05.228Z,5.60
2019-03-28T15:54:34.058Z,6.40
2019-03-28T15:57:02.586Z,5.60
2019-03-28T15:59:31.023Z,5.10
2019-03-28T16:02:00.020Z,5.27
2019-03-28T16:04:28.571Z,5.47
2019-03-28T16:06:57.155Z,6.10
2019-03-28T16:09:25.637Z,6.73
2019-03-28T16:12:02.503Z,6.93
2019-03-28T16:14:24.449Z,6.77
2019-03-28T16:16:53.005Z,7.50
2019-03-28T16:19:27.269Z,7.13
2019-03-28T16:21:55.710Z,6.40
2019-03-28T16:24:24.171Z,6.33
2019-03-28T16:26:52.717Z,6.63
2019-03-28T16:29:21.259Z,7.23
2019-03-28T16:31:49.722Z,8.00
2019-03-28T16:34:18.155Z,7.37
2019-03-28T16:36:46.632Z,7.83
2019-03-28T16:39:15.071Z,8.40
2019-03-28T16:41:43.537Z,7.00
2019-03-28T16:44:11.990Z,7.20
2019-03-28T16:46:40.452Z,7.30
2019-03-28T16:49:08.906Z,7.40
2019-03-28T16:51:37.472Z,8.07
2019-03-28T16:54:05.929Z,7.47
2019-03-28T16:56:34.363Z,7.53
2019-03-28T16:59:03.075Z,8.50
2019-03-28T17:01:31.516Z,7.90
2019-03-28T17:03:59.976Z,7.63
2019-03-28T17:06:28.566Z,7.50
2019-03-28T17:08:57.933Z,8.10
2019-03-28T17:11:26.375Z,7.43
2019-03-28T17:13:54.834Z,7.70
2019-03-28T17:16:23.306Z,8.00
2019-03-28T17:18:52.013Z,8.27
2019-03-28T17:21:23.237Z,7.53
2019-03-28T17:23:50.702Z,8.57
2019-03-28T17:26:19.135Z,7.30
2019-03-28T17:28:47.572Z,8.00
2019-03-28T17:31:16.007Z,7.30
2019-03-28T17:33:44.490Z,7.53
2019-03-28T17:36:13.078Z,6.50
2019-03-28T17:38:41.599Z,6.17
2019-03-28T17:41:10.030Z,6.37
2019-03-28T17:43:38.491Z,5.93
2019-03-28T17:46:06.942Z,6.53
2019-03-28T17:48:35.463Z,6.87
2019-03-28T17:51:04.334Z,6.50
2019-03-28T17:53:32.777Z,6.20
2019-03-28T17:56:01.229Z,6.73
2019-03-28T17:58:29.664Z,6.70
2019-03-28T18:00:58.279Z,7.00
2019-03-28T18:03:31.419Z,6.87
2019-03-28T18:05:58.256Z,7.43
2019-03-28T18:08:27.155Z,7.07
2019-03-28T18:10:56.006Z,5.93
2019-03-28T18:13:24.630Z,6.43
2019-03-28T18:15:53.070Z,6.57
2019-03-28T18:18:21.522Z,7.23
2019-03-28T18:20:49.974Z,6.83
2019-03-28T18:23:18.412Z,6.67
2019-03-28T18:25:47.752Z,6.77
2019-03-28T18:28:16.192Z,6.53
2019-03-28T18:30:45.832Z,6.57
2019-03-28T18:33:14.626Z,6.60
2019-03-28T18:35:43.140Z,7.20
2019-03-28T18:38:11.606Z,6.93
2019-03-28T18:40:57.936Z,7.00
2019-03-28T18:43:26.375Z,6.80
2019-03-28T18:45:54.823Z,6.20
2019-03-28T18:48:29.578Z,7.03
2019-03-28T18:50:54.651Z,7.37
2019-03-28T18:53:23.087Z,6.30
2019-03-28T18:55:51.547Z,6.63
2019-03-28T18:58:19.982Z,6.87
2019-03-28T19:00:48.855Z,8.20
2019-03-28T19:03:17.371Z,6.10
2019-03-28T19:05:45.848Z,6.70
2019-03-28T19:08:14.270Z,6.87
2019-03-28T19:10:42.742Z,6.60
2019-03-28T19:13:11.264Z,6.80
2019-03-28T19:15:39.773Z,7.10
2019-03-28T19:18:08.223Z,7.93
2019-03-28T19:20:36.680Z,6.20
2019-03-28T19:23:07.214Z,7.50
2019-03-28T19:25:35.381Z,6.57
2019-03-28T19:28:03.832Z,6.40
2019-03-28T19:30:33.571Z,6.80
2019-03-28T19:33:02.240Z,6.77
2019-03-28T19:35:33.213Z,6.70
2019-03-28T19:38:01.457Z,6.80
2019-03-28T19:40:29.984Z,6.10
2019-03-28T19:42:58.785Z,6.97
2019-03-28T19:45:35.536Z,6.40
2019-03-28T19:48:02.506Z,6.40
2019-03-28T19:50:30.955Z,6.30
2019-03-28T19:52:59.422Z,6.87
2019-03-28T19:55:28.746Z,7.60
2019-03-28T19:57:57.944Z,6.30
2019-03-28T20:00:26.606Z,6.80
2019-03-28T20:02:55.292Z,6.83
2019-03-28T20:05:24.017Z,7.00
2019-03-28T20:07:52.545Z,6.23
2019-03-28T20:10:21.864Z,6.43
2019-03-28T20:12:50.763Z,9.03
2019-03-28T20:15:19.314Z,10.23
2019-03-28T20:17:48.059Z,9.40
2019-03-28T20:20:16.834Z,11.37
2019-03-28T20:22:45.373Z,8.93
2019-03-28T20:25:13.820Z,7.67
2019-03-28T20:27:42.315Z,6.67
2019-03-28T20:30:11.262Z,6.70
2019-03-28T20:32:40.129Z,7.10
2019-03-28T20:35:15.273Z,6.30
2019-03-28T20:37:43.717Z,6.63
2019-03-28T20:40:13.109Z,6.57
2019-03-28T20:42:41.578Z,6.10
2019-03-28T20:45:11.138Z,7.00
2019-03-28T20:47:39.774Z,6.20
2019-03-28T20:50:09.319Z,6.40
2019-03-28T20:52:37.825Z,6.90
2019-03-28T20:55:07.970Z,6.43
2019-03-28T20:57:36.435Z,6.23
2019-03-28T21:00:08.493Z,6.17
2019-03-28T21:02:36.697Z,6.37
2019-03-28T21:05:07.006Z,6.00
2019-03-28T21:07:35.466Z,6.53
2019-03-28T21:10:06.105Z,5.80
2019-03-28T21:12:34.608Z,6.20
2019-03-28T21:15:09.216Z,6.60
2019-03-28T21:17:37.691Z,6.70
2019-03-28T21:20:07.465Z,6.80
2019-03-28T21:22:35.908Z,6.70
2019-03-28T21:25:06.265Z,6.80
2019-03-28T21:27:34.706Z,7.20
2019-03-28T21:30:03.456Z,7.77
2019-03-28T21:32:31.894Z,6.10
2019-03-28T21:35:00.354Z,6.40
2019-03-28T21:37:28.805Z,7.47
2019-03-28T21:39:57.271Z,6.77
2019-03-28T21:42:25.703Z,6.30
2019-03-28T21:44:54.163Z,6.13
2019-03-28T21:47:22.623Z,6.20
2019-03-28T21:49:51.078Z,5.87
2019-03-28T21:52:19.532Z,6.40
2019-03-28T21:54:48.002Z,5.83
2019-03-28T21:57:16.441Z,5.93
2019-03-28T21:59:44.909Z,6.27
2019-03-28T22:02:13.366Z,7.00
2019-03-28T22:04:41.814Z,6.07
2019-03-28T22:07:10.286Z,6.33
2019-03-28T22:09:39.834Z,5.97
2019-03-28T22:12:08.457Z,7.00
2019-03-28T22:14:36.935Z,6.97
2019-03-28T22:17:05.432Z,6.50
2019-03-28T22:19:33.967Z,6.70
2019-03-28T22:22:02.429Z,7.10
2019-03-28T22:24:30.899Z,6.57
2019-03-28T22:26:59.331Z,6.57
2019-03-28T22:29:27.780Z,7.27
2019-03-28T22:31:56.907Z,6.83
2019-03-28T22:34:25.531Z,6.63
2019-03-28T22:36:57.580Z,8.13
2019-03-28T22:39:24.201Z,7.10
2019-03-28T22:41:52.706Z,7.30
2019-03-28T22:44:21.165Z,6.33
2019-03-28T22:46:49.607Z,6.60
2019-03-28T22:49:18.113Z,7.60
2019-03-28T22:51:46.551Z,7.77
2019-03-28T22:54:14.989Z,7.53
2019-03-28T22:56:43.466Z,7.70
2019-03-28T22:59:11.907Z,7.53
2019-03-28T23:01:40.445Z,6.80
2019-03-28T23:04:08.888Z,7.30
2019-03-28T23:06:37.326Z,5.80
2019-03-28T23:09:07.016Z,6.60
2019-03-28T23:11:35.469Z,6.97
2019-03-28T23:14:04.072Z,6.80
2019-03-28T23:16:32.507Z,7.53
2019-03-28T23:19:01.211Z,7.07
2019-03-28T23:21:29.687Z,7.07
2019-03-28T23:23:58.196Z,7.70
2019-03-28T23:26:26.653Z,6.90
2019-03-28T23:28:55.182Z,6.90
2019-03-28T23:31:23.621Z,8.37
2019-03-28T23:33:52.053Z,6.90
2019-03-28T23:36:20.496Z,6.57
2019-03-28T23:38:49.056Z,6.07
2019-03-28T23:41:17.534Z,6.67
2019-03-28T23:43:46.119Z,7.00
2019-03-28T23:46:14.562Z,7.23
2019-03-28T23:48:43.048Z,7.67
2019-03-28T23:51:11.518Z,8.03
2019-03-28T23:53:39.987Z,7.47
2019-03-28T23:56:08.447Z,7.10
2019-03-28T23:58:36.968Z,7.30
